sensor_id;sensor_type;location;lat;lon;timestamp;P1;durP1;ratioP1;P2;durP2;ratioP2
64157;SDS011;50449;51.528;5.076;2023-02-18T00:01:28;38.83;;;34.58;;
64157;SDS011;50449;51.528;5.076;2023-02-18T00:03:54;33.42;;;30.70;;
64157;SDS011;50449;51.528;5.076;2023-02-18T00:08:48;35.13;;;32.00;;
64157;SDS011;50449;51.528;5.076;2023-02-18T00:11:15;36.03;;;32.38;;
64157;SDS011;50449;51.528;5.076;2023-02-18T00:13:41;36.72;;;33.03;;
64157;SDS011;50449;51.528;5.076;2023-02-18T00:16:08;35.33;;;31.92;;
64157;SDS011;50449;51.528;5.076;2023-02-18T00:18:35;28.55;;;26.52;;
64157;SDS011;50449;51.528;5.076;2023-02-18T00:21:02;34.80;;;31.73;;
64157;SDS011;50449;51.528;5.076;2023-02-18T00:23:29;37.30;;;33.80;;
64157;SDS011;50449;51.528;5.076;2023-02-18T00:26:05;32.55;;;29.42;;
64157;SDS011;50449;51.528;5.076;2023-02-18T00:28:32;35.80;;;32.17;;
64157;SDS011;50449;51.528;5.076;2023-02-18T00:30:57;34.42;;;30.98;;
64157;SDS011;50449;51.528;5.076;2023-02-18T00:33:23;34.80;;;30.35;;
64157;SDS011;50449;51.528;5.076;2023-02-18T00:35:48;33.10;;;29.90;;
64157;SDS011;50449;51.528;5.076;2023-02-18T00:38:14;30.45;;;27.95;;
64157;SDS011;50449;51.528;5.076;2023-02-18T00:40:41;35.53;;;31.70;;
64157;SDS011;50449;51.528;5.076;2023-02-18T00:43:07;35.63;;;31.83;;
64157;SDS011;50449;51.528;5.076;2023-02-18T00:45:34;34.60;;;31.10;;
64157;SDS011;50449;51.528;5.076;2023-02-18T00:47:59;33.95;;;30.75;;
64157;SDS011;50449;51.528;5.076;2023-02-18T00:50:25;31.23;;;28.75;;
64157;SDS011;50449;51.528;5.076;2023-02-18T00:52:53;34.85;;;31.13;;
64157;SDS011;50449;51.528;5.076;2023-02-18T00:55:19;30.40;;;27.73;;
64157;SDS011;50449;51.528;5.076;2023-02-18T00:57:44;32.58;;;29.58;;
64157;SDS011;50449;51.528;5.076;2023-02-18T01:00:09;36.90;;;33.13;;
64157;SDS011;50449;51.528;5.076;2023-02-18T01:02:35;34.88;;;31.58;;
64157;SDS011;50449;51.528;5.076;2023-02-18T01:05:01;38.55;;;34.60;;
64157;SDS011;50449;51.528;5.076;2023-02-18T01:07:26;39.60;;;34.72;;
64157;SDS011;50449;51.528;5.076;2023-02-18T01:09:52;44.05;;;35.00;;
64157;SDS011;50449;51.528;5.076;2023-02-18T01:12:17;39.42;;;34.63;;
64157;SDS011;50449;51.528;5.076;2023-02-18T01:14:43;49.80;;;40.75;;
64157;SDS011;50449;51.528;5.076;2023-02-18T01:17:08;38.47;;;34.40;;
64157;SDS011;50449;51.528;5.076;2023-02-18T01:19:34;53.13;;;39.72;;
64157;SDS011;50449;51.528;5.076;2023-02-18T01:21:59;30.75;;;28.25;;
64157;SDS011;50449;51.528;5.076;2023-02-18T01:24:25;33.67;;;30.50;;
64157;SDS011;50449;51.528;5.076;2023-02-18T01:26:50;45.05;;;34.63;;
64157;SDS011;50449;51.528;5.076;2023-02-18T01:29:16;41.60;;;36.55;;
64157;SDS011;50449;51.528;5.076;2023-02-18T01:31:41;45.95;;;33.20;;
64157;SDS011;50449;51.528;5.076;2023-02-18T01:34:07;36.42;;;32.22;;
64157;SDS011;50449;51.528;5.076;2023-02-18T01:36:32;42.33;;;35.65;;
64157;SDS011;50449;51.528;5.076;2023-02-18T01:38:58;32.08;;;28.95;;
64157;SDS011;50449;51.528;5.076;2023-02-18T01:41:23;32.80;;;29.35;;
64157;SDS011;50449;51.528;5.076;2023-02-18T01:44:09;31.73;;;28.60;;
64157;SDS011;50449;51.528;5.076;2023-02-18T01:46:35;31.35;;;28.52;;
64157;SDS011;50449;51.528;5.076;2023-02-18T01:49:00;31.73;;;28.45;;
64157;SDS011;50449;51.528;5.076;2023-02-18T01:51:30;34.65;;;31.05;;
64157;SDS011;50449;51.528;5.076;2023-02-18T01:59:20;32.00;;;29.23;;
64157;SDS011;50449;51.528;5.076;2023-02-18T02:01:49;32.17;;;29.17;;
64157;SDS011;50449;51.528;5.076;2023-02-18T02:04:15;32.03;;;29.17;;
64157;SDS011;50449;51.528;5.076;2023-02-18T02:06:41;31.52;;;27.80;;
64157;SDS011;50449;51.528;5.076;2023-02-18T02:09:08;33.30;;;30.00;;
64157;SDS011;50449;51.528;5.076;2023-02-18T02:14:48;36.05;;;32.17;;
64157;SDS011;50449;51.528;5.076;2023-02-18T02:17:45;32.25;;;29.20;;
64157;SDS011;50449;51.528;5.076;2023-02-18T02:48:44;32.17;;;28.98;;
64157;SDS011;50449;51.528;5.076;2023-02-18T02:51:24;30.33;;;27.77;;
64157;SDS011;50449;51.528;5.076;2023-02-18T02:53:53;29.90;;;27.42;;
64157;SDS011;50449;51.528;5.076;2023-02-18T02:56:22;27.92;;;25.67;;
64157;SDS011;50449;51.528;5.076;2023-02-18T02:58:55;28.13;;;26.05;;
64157;SDS011;50449;51.528;5.076;2023-02-18T03:01:28;29.73;;;26.98;;
64157;SDS011;50449;51.528;5.076;2023-02-18T03:06:40;28.85;;;26.42;;
64157;SDS011;50449;51.528;5.076;2023-02-18T03:09:40;33.00;;;30.30;;
64157;SDS011;50449;51.528;5.076;2023-02-18T03:12:11;29.17;;;26.77;;
64157;SDS011;50449;51.528;5.076;2023-02-18T03:14:51;29.63;;;27.42;;
64157;SDS011;50449;51.528;5.076;2023-02-18T03:17:34;27.15;;;25.00;;
64157;SDS011;50449;51.528;5.076;2023-02-18T03:20:07;24.67;;;22.95;;
64157;SDS011;50449;51.528;5.076;2023-02-18T03:22:42;27.70;;;25.73;;
64157;SDS011;50449;51.528;5.076;2023-02-18T03:25:11;28.88;;;26.63;;
64157;SDS011;50449;51.528;5.076;2023-02-18T03:27:45;24.98;;;23.20;;
64157;SDS011;50449;51.528;5.076;2023-02-18T03:30:20;26.70;;;24.90;;
64157;SDS011;50449;51.528;5.076;2023-02-18T03:32:48;25.88;;;24.27;;
64157;SDS011;50449;51.528;5.076;2023-02-18T03:35:20;27.20;;;25.38;;
64157;SDS011;50449;51.528;5.076;2023-02-18T03:38:00;23.38;;;22.05;;
64157;SDS011;50449;51.528;5.076;2023-02-18T03:40:31;25.50;;;23.90;;
64157;SDS011;50449;51.528;5.076;2023-02-18T03:42:57;24.73;;;23.30;;
64157;SDS011;50449;51.528;5.076;2023-02-18T03:45:24;26.17;;;24.58;;
64157;SDS011;50449;51.528;5.076;2023-02-18T03:47:50;25.23;;;23.83;;
64157;SDS011;50449;51.528;5.076;2023-02-18T03:50:15;26.73;;;24.90;;
64157;SDS011;50449;51.528;5.076;2023-02-18T03:52:40;24.55;;;23.05;;
64157;SDS011;50449;51.528;5.076;2023-02-18T03:55:06;27.25;;;25.35;;
64157;SDS011;50449;51.528;5.076;2023-02-18T03:57:33;26.08;;;24.58;;
64157;SDS011;50449;51.528;5.076;2023-02-18T03:59:58;26.15;;;24.65;;
64157;SDS011;50449;51.528;5.076;2023-02-18T04:02:24;28.52;;;26.50;;
64157;SDS011;50449;51.528;5.076;2023-02-18T04:04:49;26.02;;;24.38;;
64157;SDS011;50449;51.528;5.076;2023-02-18T04:07:14;24.38;;;22.90;;
64157;SDS011;50449;51.528;5.076;2023-02-18T04:09:40;25.95;;;24.33;;
64157;SDS011;50449;51.528;5.076;2023-02-18T04:12:05;26.30;;;24.70;;
64157;SDS011;50449;51.528;5.076;2023-02-18T04:14:31;26.77;;;24.60;;
64157;SDS011;50449;51.528;5.076;2023-02-18T04:16:56;25.48;;;23.92;;
64157;SDS011;50449;51.528;5.076;2023-02-18T04:19:22;26.75;;;24.90;;
64157;SDS011;50449;51.528;5.076;2023-02-18T04:21:47;25.92;;;24.23;;
64157;SDS011;50449;51.528;5.076;2023-02-18T04:24:12;25.88;;;24.38;;
64157;SDS011;50449;51.528;5.076;2023-02-18T04:26:38;25.23;;;23.73;;
64157;SDS011;50449;51.528;5.076;2023-02-18T04:29:03;25.75;;;24.08;;
64157;SDS011;50449;51.528;5.076;2023-02-18T04:31:29;25.33;;;23.52;;
64157;SDS011;50449;51.528;5.076;2023-02-18T04:33:54;24.85;;;23.35;;
64157;SDS011;50449;51.528;5.076;2023-02-18T04:36:20;26.73;;;24.83;;
64157;SDS011;50449;51.528;5.076;2023-02-18T04:38:45;24.73;;;23.35;;
64157;SDS011;50449;51.528;5.076;2023-02-18T04:41:10;25.98;;;24.23;;
64157;SDS011;50449;51.528;5.076;2023-02-18T04:43:39;22.60;;;21.40;;
64157;SDS011;50449;51.528;5.076;2023-02-18T04:46:04;23.88;;;22.38;;
64157;SDS011;50449;51.528;5.076;2023-02-18T04:48:29;29.30;;;27.08;;
64157;SDS011;50449;51.528;5.076;2023-02-18T04:50:55;27.27;;;25.58;;
64157;SDS011;50449;51.528;5.076;2023-02-18T04:53:20;25.58;;;23.92;;
64157;SDS011;50449;51.528;5.076;2023-02-18T04:55:49;26.45;;;24.85;;
64157;SDS011;50449;51.528;5.076;2023-02-18T04:58:16;24.33;;;22.92;;
64157;SDS011;50449;51.528;5.076;2023-02-18T05:00:42;26.17;;;24.45;;
64157;SDS011;50449;51.528;5.076;2023-02-18T05:03:07;27.08;;;25.42;;
64157;SDS011;50449;51.528;5.076;2023-02-18T05:05:32;27.88;;;25.98;;
64157;SDS011;50449;51.528;5.076;2023-02-18T05:07:58;26.33;;;24.55;;
64157;SDS011;50449;51.528;5.076;2023-02-18T05:10:23;26.55;;;24.95;;
64157;SDS011;50449;51.528;5.076;2023-02-18T05:12:49;24.58;;;23.20;;
64157;SDS011;50449;51.528;5.076;2023-02-18T05:15:14;24.60;;;23.20;;
64157;SDS011;50449;51.528;5.076;2023-02-18T05:17:40;26.30;;;24.60;;
64157;SDS011;50449;51.528;5.076;2023-02-18T05:20:05;27.27;;;25.55;;
64157;SDS011;50449;51.528;5.076;2023-02-18T05:22:31;26.90;;;25.10;;
64157;SDS011;50449;51.528;5.076;2023-02-18T05:24:57;25.55;;;23.95;;
64157;SDS011;50449;51.528;5.076;2023-02-18T05:27:22;26.88;;;25.23;;
64157;SDS011;50449;51.528;5.076;2023-02-18T05:29:48;25.20;;;23.58;;
64157;SDS011;50449;51.528;5.076;2023-02-18T05:32:13;23.75;;;22.45;;
64157;SDS011;50449;51.528;5.076;2023-02-18T05:34:38;26.85;;;25.05;;
64157;SDS011;50449;51.528;5.076;2023-02-18T05:37:04;26.02;;;24.48;;
64157;SDS011;50449;51.528;5.076;2023-02-18T05:39:29;29.40;;;27.42;;
64157;SDS011;50449;51.528;5.076;2023-02-18T05:41:55;27.70;;;25.95;;
64157;SDS011;50449;51.528;5.076;2023-02-18T05:44:20;26.58;;;24.88;;
64157;SDS011;50449;51.528;5.076;2023-02-18T05:46:55;25.55;;;23.80;;
64157;SDS011;50449;51.528;5.076;2023-02-18T05:49:22;28.05;;;25.92;;
64157;SDS011;50449;51.528;5.076;2023-02-18T05:51:48;27.27;;;25.20;;
64157;SDS011;50449;51.528;5.076;2023-02-18T05:54:13;26.17;;;24.67;;
64157;SDS011;50449;51.528;5.076;2023-02-18T05:56:39;29.98;;;27.88;;
64157;SDS011;50449;51.528;5.076;2023-02-18T05:59:04;25.20;;;23.73;;
64157;SDS011;50449;51.528;5.076;2023-02-18T06:01:29;26.73;;;24.92;;
64157;SDS011;50449;51.528;5.076;2023-02-18T06:03:55;25.00;;;23.48;;
64157;SDS011;50449;51.528;5.076;2023-02-18T06:06:20;28.08;;;26.05;;
64157;SDS011;50449;51.528;5.076;2023-02-18T06:08:46;28.30;;;26.30;;
64157;SDS011;50449;51.528;5.076;2023-02-18T06:11:11;25.27;;;23.58;;
64157;SDS011;50449;51.528;5.076;2023-02-18T06:13:36;28.05;;;26.27;;
64157;SDS011;50449;51.528;5.076;2023-02-18T06:16:02;25.80;;;24.20;;
64157;SDS011;50449;51.528;5.076;2023-02-18T06:18:27;25.50;;;24.00;;
64157;SDS011;50449;51.528;5.076;2023-02-18T06:20:53;23.50;;;22.00;;
64157;SDS011;50449;51.528;5.076;2023-02-18T06:23:18;24.85;;;23.25;;
64157;SDS011;50449;51.528;5.076;2023-02-18T06:25:44;26.58;;;24.88;;
64157;SDS011;50449;51.528;5.076;2023-02-18T06:28:12;29.00;;;27.15;;
64157;SDS011;50449;51.528;5.076;2023-02-18T06:30:37;26.40;;;24.73;;
64157;SDS011;50449;51.528;5.076;2023-02-18T06:33:02;24.77;;;23.30;;
64157;SDS011;50449;51.528;5.076;2023-02-18T06:35:28;27.50;;;25.70;;
64157;SDS011;50449;51.528;5.076;2023-02-18T06:37:54;28.17;;;26.42;;
64157;SDS011;50449;51.528;5.076;2023-02-18T06:40:19;26.90;;;24.98;;
64157;SDS011;50449;51.528;5.076;2023-02-18T06:42:45;26.10;;;24.27;;
64157;SDS011;50449;51.528;5.076;2023-02-18T06:45:10;28.30;;;26.27;;
64157;SDS011;50449;51.528;5.076;2023-02-18T06:47:36;26.75;;;24.98;;
64157;SDS011;50449;51.528;5.076;2023-02-18T06:50:01;25.85;;;24.27;;
64157;SDS011;50449;51.528;5.076;2023-02-18T06:52:28;24.33;;;22.88;;
64157;SDS011;50449;51.528;5.076;2023-02-18T06:54:54;24.80;;;23.17;;
64157;SDS011;50449;51.528;5.076;2023-02-18T06:57:20;24.88;;;23.27;;
64157;SDS011;50449;51.528;5.076;2023-02-18T06:59:45;24.80;;;23.23;;
64157;SDS011;50449;51.528;5.076;2023-02-18T07:02:11;23.75;;;22.40;;
64157;SDS011;50449;51.528;5.076;2023-02-18T07:04:37;25.27;;;23.75;;
64157;SDS011;50449;51.528;5.076;2023-02-18T07:07:03;23.95;;;22.55;;
64157;SDS011;50449;51.528;5.076;2023-02-18T07:09:28;22.88;;;21.58;;
64157;SDS011;50449;51.528;5.076;2023-02-18T07:11:53;22.52;;;21.20;;
64157;SDS011;50449;51.528;5.076;2023-02-18T07:14:19;23.70;;;22.30;;
64157;SDS011;50449;51.528;5.076;2023-02-18T07:16:44;25.25;;;23.63;;
64157;SDS011;50449;51.528;5.076;2023-02-18T07:19:09;25.42;;;23.83;;
64157;SDS011;50449;51.528;5.076;2023-02-18T07:21:35;25.65;;;23.95;;
64157;SDS011;50449;51.528;5.076;2023-02-18T07:24:00;26.52;;;24.63;;
64157;SDS011;50449;51.528;5.076;2023-02-18T07:26:26;26.67;;;24.75;;
64157;SDS011;50449;51.528;5.076;2023-02-18T07:28:51;24.10;;;22.63;;
64157;SDS011;50449;51.528;5.076;2023-02-18T07:31:16;27.25;;;24.58;;
64157;SDS011;50449;51.528;5.076;2023-02-18T07:33:42;27.83;;;25.02;;
64157;SDS011;50449;51.528;5.076;2023-02-18T07:36:07;23.02;;;21.67;;
64157;SDS011;50449;51.528;5.076;2023-02-18T07:38:33;26.73;;;24.15;;
64157;SDS011;50449;51.528;5.076;2023-02-18T07:40:58;27.30;;;25.67;;
64157;SDS011;50449;51.528;5.076;2023-02-18T07:43:24;26.20;;;24.60;;
64157;SDS011;50449;51.528;5.076;2023-02-18T07:45:49;24.02;;;22.48;;
64157;SDS011;50449;51.528;5.076;2023-02-18T07:48:15;25.38;;;23.80;;
64157;SDS011;50449;51.528;5.076;2023-02-18T07:50:41;25.67;;;24.08;;
64157;SDS011;50449;51.528;5.076;2023-02-18T07:53:09;24.20;;;22.80;;
64157;SDS011;50449;51.528;5.076;2023-02-18T07:55:36;25.20;;;23.35;;
64157;SDS011;50449;51.528;5.076;2023-02-18T08:03:39;23.92;;;22.23;;
64157;SDS011;50449;51.528;5.076;2023-02-18T08:06:04;23.35;;;21.92;;
64157;SDS011;50449;51.528;5.076;2023-02-18T08:08:31;23.52;;;22.08;;
64157;SDS011;50449;51.528;5.076;2023-02-18T08:10:58;23.85;;;22.38;;
64157;SDS011;50449;51.528;5.076;2023-02-18T08:13:27;25.77;;;23.13;;
64157;SDS011;50449;51.528;5.076;2023-02-18T08:15:54;26.38;;;23.95;;
64157;SDS011;50449;51.528;5.076;2023-02-18T08:18:23;22.92;;;21.42;;
64157;SDS011;50449;51.528;5.076;2023-02-18T08:20:49;24.52;;;22.80;;
64157;SDS011;50449;51.528;5.076;2023-02-18T08:23:21;23.67;;;21.75;;
64157;SDS011;50449;51.528;5.076;2023-02-18T08:25:50;24.38;;;22.77;;
64157;SDS011;50449;51.528;5.076;2023-02-18T08:28:17;24.65;;;22.80;;
64157;SDS011;50449;51.528;5.076;2023-02-18T08:30:46;25.05;;;23.13;;
64157;SDS011;50449;51.528;5.076;2023-02-18T08:33:13;24.15;;;22.35;;
64157;SDS011;50449;51.528;5.076;2023-02-18T08:35:39;23.23;;;21.92;;
64157;SDS011;50449;51.528;5.076;2023-02-18T08:38:05;24.05;;;22.45;;
64157;SDS011;50449;51.528;5.076;2023-02-18T08:40:30;23.60;;;21.95;;
64157;SDS011;50449;51.528;5.076;2023-02-18T08:42:55;27.15;;;25.10;;
64157;SDS011;50449;51.528;5.076;2023-02-18T08:45:21;25.73;;;23.67;;
64157;SDS011;50449;51.528;5.076;2023-02-18T08:47:46;23.70;;;22.08;;
64157;SDS011;50449;51.528;5.076;2023-02-18T08:50:12;22.05;;;20.80;;
64157;SDS011;50449;51.528;5.076;2023-02-18T08:52:37;25.40;;;23.80;;
64157;SDS011;50449;51.528;5.076;2023-02-18T08:55:03;22.40;;;21.25;;
64157;SDS011;50449;51.528;5.076;2023-02-18T08:57:29;24.95;;;23.08;;
64157;SDS011;50449;51.528;5.076;2023-02-18T08:59:54;23.13;;;21.83;;
64157;SDS011;50449;51.528;5.076;2023-02-18T09:02:20;23.70;;;21.42;;
64157;SDS011;50449;51.528;5.076;2023-02-18T09:04:46;22.50;;;21.38;;
64157;SDS011;50449;51.528;5.076;2023-02-18T09:07:11;23.02;;;21.65;;
64157;SDS011;50449;51.528;5.076;2023-02-18T09:09:37;23.85;;;22.15;;
64157;SDS011;50449;51.528;5.076;2023-02-18T09:12:02;22.70;;;21.20;;
64157;SDS011;50449;51.528;5.076;2023-02-18T09:14:28;22.83;;;20.88;;
64157;SDS011;50449;51.528;5.076;2023-02-18T09:16:55;24.35;;;22.63;;
64157;SDS011;50449;51.528;5.076;2023-02-18T09:19:21;25.20;;;23.15;;
64157;SDS011;50449;51.528;5.076;2023-02-18T09:21:46;22.63;;;21.27;;
64157;SDS011;50449;51.528;5.076;2023-02-18T09:24:11;21.98;;;20.73;;
64157;SDS011;50449;51.528;5.076;2023-02-18T09:26:37;23.17;;;21.65;;
64157;SDS011;50449;51.528;5.076;2023-02-18T09:29:03;23.38;;;22.17;;
64157;SDS011;50449;51.528;5.076;2023-02-18T09:31:28;22.65;;;21.02;;
64157;SDS011;50449;51.528;5.076;2023-02-18T09:33:55;27.25;;;25.35;;
64157;SDS011;50449;51.528;5.076;2023-02-18T09:36:22;22.50;;;20.85;;
64157;SDS011;50449;51.528;5.076;2023-02-18T09:38:48;24.35;;;22.88;;
64157;SDS011;50449;51.528;5.076;2023-02-18T09:41:23;23.70;;;21.98;;
64157;SDS011;50449;51.528;5.076;2023-02-18T09:43:56;25.58;;;23.75;;
64157;SDS011;50449;51.528;5.076;2023-02-18T09:46:27;21.88;;;20.50;;
64157;SDS011;50449;51.528;5.076;2023-02-18T09:48:56;25.17;;;22.95;;
64157;SDS011;50449;51.528;5.076;2023-02-18T09:51:25;23.40;;;21.75;;
64157;SDS011;50449;51.528;5.076;2023-02-18T09:53:51;25.10;;;23.42;;
64157;SDS011;50449;51.528;5.076;2023-02-18T09:56:21;22.08;;;20.85;;
64157;SDS011;50449;51.528;5.076;2023-02-18T09:58:50;24.15;;;22.15;;
64157;SDS011;50449;51.528;5.076;2023-02-18T10:01:27;24.58;;;22.63;;
64157;SDS011;50449;51.528;5.076;2023-02-18T10:03:57;22.98;;;21.67;;
64157;SDS011;50449;51.528;5.076;2023-02-18T10:06:28;23.33;;;21.98;;
64157;SDS011;50449;51.528;5.076;2023-02-18T10:09:02;24.70;;;23.20;;
64157;SDS011;50449;51.528;5.076;2023-02-18T10:11:37;23.70;;;21.65;;
64157;SDS011;50449;51.528;5.076;2023-02-18T10:14:08;22.73;;;21.42;;
64157;SDS011;50449;51.528;5.076;2023-02-18T10:16:36;24.85;;;22.65;;
64157;SDS011;50449;51.528;5.076;2023-02-18T10:22:00;22.00;;;20.73;;
64157;SDS011;50449;51.528;5.076;2023-02-18T10:24:30;24.30;;;22.90;;
64157;SDS011;50449;51.528;5.076;2023-02-18T10:26:59;23.88;;;22.20;;
64157;SDS011;50449;51.528;5.076;2023-02-18T10:29:27;26.90;;;23.98;;
64157;SDS011;50449;51.528;5.076;2023-02-18T10:31:58;23.95;;;22.55;;
64157;SDS011;50449;51.528;5.076;2023-02-18T10:34:53;22.70;;;21.50;;
64157;SDS011;50449;51.528;5.076;2023-02-18T10:50:43;23.20;;;21.70;;
64157;SDS011;50449;51.528;5.076;2023-02-18T10:53:11;24.45;;;22.75;;
64157;SDS011;50449;51.528;5.076;2023-02-18T10:55:44;21.77;;;20.42;;
64157;SDS011;50449;51.528;5.076;2023-02-18T10:58:23;23.67;;;22.27;;
64157;SDS011;50449;51.528;5.076;2023-02-18T11:00:49;22.50;;;21.10;;
64157;SDS011;50449;51.528;5.076;2023-02-18T11:03:15;22.58;;;21.33;;
64157;SDS011;50449;51.528;5.076;2023-02-18T11:05:44;22.15;;;20.85;;
64157;SDS011;50449;51.528;5.076;2023-02-18T11:08:21;25.17;;;23.15;;
64157;SDS011;50449;51.528;5.076;2023-02-18T11:10:49;23.50;;;21.87;;
64157;SDS011;50449;51.528;5.076;2023-02-18T11:13:25;24.73;;;23.20;;
64157;SDS011;50449;51.528;5.076;2023-02-18T11:15:57;23.33;;;21.70;;
64157;SDS011;50449;51.528;5.076;2023-02-18T11:18:29;23.65;;;22.08;;
64157;SDS011;50449;51.528;5.076;2023-02-18T11:21:01;23.88;;;22.48;;
64157;SDS011;50449;51.528;5.076;2023-02-18T11:25:59;21.50;;;20.13;;
64157;SDS011;50449;51.528;5.076;2023-02-18T11:31:25;23.83;;;22.10;;
64157;SDS011;50449;51.528;5.076;2023-02-18T11:33:57;23.23;;;21.52;;
64157;SDS011;50449;51.528;5.076;2023-02-18T11:36:31;23.20;;;21.43;;
64157;SDS011;50449;51.528;5.076;2023-02-18T11:41:40;25.02;;;23.27;;
64157;SDS011;50449;51.528;5.076;2023-02-18T11:47:02;24.35;;;22.40;;
64157;SDS011;50449;51.528;5.076;2023-02-18T11:49:42;22.25;;;21.02;;
64157;SDS011;50449;51.528;5.076;2023-02-18T11:52:16;25.05;;;23.42;;
64157;SDS011;50449;51.528;5.076;2023-02-18T11:54:57;24.45;;;23.05;;
64157;SDS011;50449;51.528;5.076;2023-02-18T11:57:30;23.63;;;21.60;;
64157;SDS011;50449;51.528;5.076;2023-02-18T11:59:58;21.90;;;20.67;;
64157;SDS011;50449;51.528;5.076;2023-02-18T12:02:27;23.05;;;21.55;;
64157;SDS011;50449;51.528;5.076;2023-02-18T12:05:15;22.75;;;21.02;;
64157;SDS011;50449;51.528;5.076;2023-02-18T12:07:51;24.77;;;23.08;;
64157;SDS011;50449;51.528;5.076;2023-02-18T12:10:30;23.08;;;21.50;;
64157;SDS011;50449;51.528;5.076;2023-02-18T12:13:09;23.55;;;22.00;;
64157;SDS011;50449;51.528;5.076;2023-02-18T12:18:58;25.75;;;24.02;;
64157;SDS011;50449;51.528;5.076;2023-02-18T12:21:29;25.15;;;23.58;;
64157;SDS011;50449;51.528;5.076;2023-02-18T12:34:20;25.10;;;23.35;;
64157;SDS011;50449;51.528;5.076;2023-02-18T12:39:31;23.77;;;22.23;;
64157;SDS011;50449;51.528;5.076;2023-02-18T12:53:06;23.15;;;21.52;;
64157;SDS011;50449;51.528;5.076;2023-02-18T13:17:56;24.60;;;23.20;;
64157;SDS011;50449;51.528;5.076;2023-02-18T13:22:58;22.40;;;21.20;;
64157;SDS011;50449;51.528;5.076;2023-02-18T13:25:24;26.42;;;24.65;;
64157;SDS011;50449;51.528;5.076;2023-02-18T13:27:57;22.73;;;21.52;;
64157;SDS011;50449;51.528;5.076;2023-02-18T13:31:22;24.98;;;23.08;;
64157;SDS011;50449;51.528;5.076;2023-02-18T13:34:00;24.85;;;23.25;;
64157;SDS011;50449;51.528;5.076;2023-02-18T13:41:28;21.45;;;20.35;;
64157;SDS011;50449;51.528;5.076;2023-02-18T13:44:00;25.73;;;23.77;;
64157;SDS011;50449;51.528;5.076;2023-02-18T13:46:25;24.52;;;22.67;;
64157;SDS011;50449;51.528;5.076;2023-02-18T13:48:53;25.95;;;23.88;;
64157;SDS011;50449;51.528;5.076;2023-02-18T13:51:40;24.75;;;23.17;;
64157;SDS011;50449;51.528;5.076;2023-02-18T13:56:38;23.80;;;22.40;;
64157;SDS011;50449;51.528;5.076;2023-02-18T13:59:10;25.15;;;23.85;;
64157;SDS011;50449;51.528;5.076;2023-02-18T14:01:43;24.77;;;23.17;;
64157;SDS011;50449;51.528;5.076;2023-02-18T14:10:00;24.30;;;22.50;;
64157;SDS011;50449;51.528;5.076;2023-02-18T14:23:11;25.17;;;23.30;;
64157;SDS011;50449;51.528;5.076;2023-02-18T14:31:00;23.30;;;22.10;;
64157;SDS011;50449;51.528;5.076;2023-02-18T14:33:26;25.17;;;23.60;;
64157;SDS011;50449;51.528;5.076;2023-02-18T14:41:27;25.55;;;23.95;;
64157;SDS011;50449;51.528;5.076;2023-02-18T14:44:55;25.23;;;23.83;;
64157;SDS011;50449;51.528;5.076;2023-02-18T14:50:19;23.55;;;22.30;;
64157;SDS011;50449;51.528;5.076;2023-02-18T14:52:46;24.35;;;22.45;;
64157;SDS011;50449;51.528;5.076;2023-02-18T14:55:19;23.58;;;22.17;;
64157;SDS011;50449;51.528;5.076;2023-02-18T14:57:49;22.70;;;21.50;;
64157;SDS011;50449;51.528;5.076;2023-02-18T15:00:20;24.02;;;22.63;;
64157;SDS011;50449;51.528;5.076;2023-02-18T15:02:52;24.83;;;23.25;;
64157;SDS011;50449;51.528;5.076;2023-02-18T15:05:19;24.98;;;23.52;;
64157;SDS011;50449;51.528;5.076;2023-02-18T15:11:06;26.25;;;24.63;;
64157;SDS011;50449;51.528;5.076;2023-02-18T15:13:25;23.60;;;22.13;;
64157;SDS011;50449;51.528;5.076;2023-02-18T15:15:56;24.40;;;22.77;;
64157;SDS011;50449;51.528;5.076;2023-02-18T15:18:30;25.48;;;23.63;;
64157;SDS011;50449;51.528;5.076;2023-02-18T15:21:15;26.15;;;24.52;;
64157;SDS011;50449;51.528;5.076;2023-02-18T15:23:45;27.33;;;25.55;;
64157;SDS011;50449;51.528;5.076;2023-02-18T15:26:14;22.95;;;21.75;;
64157;SDS011;50449;51.528;5.076;2023-02-18T15:28:42;25.85;;;24.00;;
64157;SDS011;50449;51.528;5.076;2023-02-18T15:31:23;24.83;;;23.38;;
64157;SDS011;50449;51.528;5.076;2023-02-18T15:33:50;25.63;;;24.08;;
64157;SDS011;50449;51.528;5.076;2023-02-18T15:36:16;24.45;;;23.02;;
64157;SDS011;50449;51.528;5.076;2023-02-18T15:38:42;26.33;;;24.73;;
64157;SDS011;50449;51.528;5.076;2023-02-18T15:41:15;26.25;;;24.40;;
64157;SDS011;50449;51.528;5.076;2023-02-18T15:43:52;26.02;;;24.27;;
64157;SDS011;50449;51.528;5.076;2023-02-18T15:46:32;28.58;;;26.67;;
64157;SDS011;50449;51.528;5.076;2023-02-18T15:48:58;24.23;;;22.85;;
64157;SDS011;50449;51.528;5.076;2023-02-18T15:51:26;28.90;;;27.00;;
64157;SDS011;50449;51.528;5.076;2023-02-18T15:53:57;26.60;;;24.70;;
64157;SDS011;50449;51.528;5.076;2023-02-18T15:56:31;27.83;;;25.77;;
64157;SDS011;50449;51.528;5.076;2023-02-18T15:59:07;25.85;;;24.40;;
64157;SDS011;50449;51.528;5.076;2023-02-18T16:01:34;29.50;;;27.67;;
64157;SDS011;50449;51.528;5.076;2023-02-18T16:04:00;26.98;;;25.08;;
64157;SDS011;50449;51.528;5.076;2023-02-18T16:06:27;30.85;;;24.92;;
64157;SDS011;50449;51.528;5.076;2023-02-18T16:08:58;29.00;;;27.17;;
64157;SDS011;50449;51.528;5.076;2023-02-18T16:11:42;29.33;;;26.50;;
64157;SDS011;50449;51.528;5.076;2023-02-18T16:19:29;32.33;;;29.85;;
64157;SDS011;50449;51.528;5.076;2023-02-18T16:21:56;25.70;;;24.30;;
64157;SDS011;50449;51.528;5.076;2023-02-18T16:24:23;29.67;;;27.45;;
64157;SDS011;50449;51.528;5.076;2023-02-18T16:26:50;27.60;;;25.90;;
64157;SDS011;50449;51.528;5.076;2023-02-18T16:32:04;26.75;;;25.15;;
64157;SDS011;50449;51.528;5.076;2023-02-18T16:34:31;29.15;;;26.92;;
64157;SDS011;50449;51.528;5.076;2023-02-18T16:36:56;29.02;;;26.45;;
64157;SDS011;50449;51.528;5.076;2023-02-18T16:39:41;29.63;;;27.52;;
64157;SDS011;50449;51.528;5.076;2023-02-18T16:42:08;26.90;;;25.15;;
64157;SDS011;50449;51.528;5.076;2023-02-18T16:44:35;31.13;;;28.88;;
64157;SDS011;50449;51.528;5.076;2023-02-18T16:47:00;30.63;;;28.33;;
64157;SDS011;50449;51.528;5.076;2023-02-18T16:49:26;30.48;;;28.30;;
64157;SDS011;50449;51.528;5.076;2023-02-18T16:51:53;28.45;;;26.45;;
64157;SDS011;50449;51.528;5.076;2023-02-18T16:54:19;30.17;;;28.08;;
64157;SDS011;50449;51.528;5.076;2023-02-18T16:56:44;29.60;;;27.67;;
64157;SDS011;50449;51.528;5.076;2023-02-18T16:59:10;31.92;;;29.40;;
64157;SDS011;50449;51.528;5.076;2023-02-18T17:01:36;33.17;;;30.73;;
64157;SDS011;50449;51.528;5.076;2023-02-18T17:04:08;27.02;;;25.30;;
64157;SDS011;50449;51.528;5.076;2023-02-18T17:06:39;30.48;;;28.25;;
64157;SDS011;50449;51.528;5.076;2023-02-18T17:09:09;32.35;;;29.83;;
64157;SDS011;50449;51.528;5.076;2023-02-18T17:11:40;34.03;;;31.48;;
64157;SDS011;50449;51.528;5.076;2023-02-18T17:14:08;32.85;;;30.15;;
64157;SDS011;50449;51.528;5.076;2023-02-18T17:16:37;33.50;;;30.52;;
64157;SDS011;50449;51.528;5.076;2023-02-18T17:19:03;29.83;;;27.85;;
64157;SDS011;50449;51.528;5.076;2023-02-18T17:21:28;36.17;;;33.20;;
64157;SDS011;50449;51.528;5.076;2023-02-18T17:23:53;32.92;;;30.17;;
64157;SDS011;50449;51.528;5.076;2023-02-18T17:26:20;32.42;;;29.85;;